Terminal Aerodrome Forecast
Issued by NWS

Home | Current Version | Previous Version | Text Only | Print | Product List | Glossary On
Versions: 1 2 3 4 5 6 7 8 9 10 11 12 13 14 15 16 17 18
000
FTUS44 KTSA 230700 AAA
TAFFYV
TAF AMD
KFYV 230722Z 2307/2406 00000KT 3SM BR SCT250
      TEMPO 2307/2311 1SM BR
     FM231600 16007KT P6SM SCT250
     FM240100 00000KT P6SM SCT250=

USA.gov is the U.S. government's official web portal to all federal, state and local government web resources and services.